sensor_id;sensor_type;location;lat;lon;timestamp;pressure;altitude;pressure_sealevel;temperature;humidity
74578;BME280;63173;49.086;33.418;2023-10-08T00:01:08;99439.78;;;11.96;55.81
74578;BME280;63173;49.086;33.418;2023-10-08T00:03:38;99439.06;;;12.03;55.54
74578;BME280;63173;49.086;33.418;2023-10-08T00:06:04;99428.81;;;12.07;54.84
74578;BME280;63173;49.086;33.418;2023-10-08T00:08:33;99438.81;;;11.34;56.62
74578;BME280;63173;49.086;33.418;2023-10-08T00:10:58;99430.25;;;11.10;56.37
74578;BME280;63173;49.086;33.418;2023-10-08T00:13:31;99424.53;;;11.73;55.54
74578;BME280;63173;49.086;33.418;2023-10-08T00:15:57;99422.59;;;11.33;57.33
74578;BME280;63173;49.086;33.418;2023-10-08T00:18:22;99426.34;;;11.51;58.01
74578;BME280;63173;49.086;33.418;2023-10-08T00:20:52;99427.94;;;11.15;58.37
74578;BME280;63173;49.086;33.418;2023-10-08T00:23:24;99423.69;;;11.65;57.75
74578;BME280;63173;49.086;33.418;2023-10-08T00:25:53;99425.50;;;11.47;57.20
74578;BME280;63173;49.086;33.418;2023-10-08T00:28:20;99422.19;;;11.75;56.96
74578;BME280;63173;49.086;33.418;2023-10-08T00:30:46;99435.44;;;11.18;57.77
74578;BME280;63173;49.086;33.418;2023-10-08T00:33:13;99434.41;;;10.67;57.19
74578;BME280;63173;49.086;33.418;2023-10-08T00:35:39;99416.09;;;11.15;56.79
74578;BME280;63173;49.086;33.418;2023-10-08T00:38:09;99414.38;;;11.03;56.41
74578;BME280;63173;49.086;33.418;2023-10-08T00:40:42;99412.63;;;10.92;57.79
74578;BME280;63173;49.086;33.418;2023-10-08T00:43:33;99407.78;;;10.82;57.80
74578;BME280;63173;49.086;33.418;2023-10-08T00:46:03;99405.28;;;10.40;59.27
74578;BME280;63173;49.086;33.418;2023-10-08T00:48:49;99397.28;;;10.94;58.42
74578;BME280;63173;49.086;33.418;2023-10-08T00:51:17;99404.78;;;11.27;56.34
74578;BME280;63173;49.086;33.418;2023-10-08T00:53:57;99405.03;;;10.52;57.12
74578;BME280;63173;49.086;33.418;2023-10-08T00:56:32;99395.69;;;10.60;56.90
74578;BME280;63173;49.086;33.418;2023-10-08T00:59:15;99394.78;;;10.23;57.41
74578;BME280;63173;49.086;33.418;2023-10-08T01:01:43;99388.97;;;10.91;56.51
74578;BME280;63173;49.086;33.418;2023-10-08T01:04:20;99389.78;;;10.91;57.71
74578;BME280;63173;49.086;33.418;2023-10-08T01:06:57;99390.66;;;10.69;58.09
74578;BME280;63173;49.086;33.418;2023-10-08T01:09:38;99396.47;;;10.94;57.48
74578;BME280;63173;49.086;33.418;2023-10-08T01:12:12;99394.09;;;10.92;57.51
74578;BME280;63173;49.086;33.418;2023-10-08T01:14:41;99397.56;;;10.52;59.21
74578;BME280;63173;49.086;33.418;2023-10-08T01:17:13;99390.44;;;10.51;58.90
74578;BME280;63173;49.086;33.418;2023-10-08T01:19:45;99402.41;;;10.33;59.83
74578;BME280;63173;49.086;33.418;2023-10-08T01:22:16;99390.38;;;10.18;59.64
74578;BME280;63173;49.086;33.418;2023-10-08T01:24:47;99379.94;;;10.08;60.65
74578;BME280;63173;49.086;33.418;2023-10-08T01:27:17;99382.91;;;10.19;60.88
74578;BME280;63173;49.086;33.418;2023-10-08T01:29:51;99378.59;;;10.21;59.65
74578;BME280;63173;49.086;33.418;2023-10-08T01:32:18;99379.63;;;9.87;61.59
74578;BME280;63173;49.086;33.418;2023-10-08T01:34:44;99378.72;;;9.80;60.92
74578;BME280;63173;49.086;33.418;2023-10-08T01:37:19;99372.88;;;10.07;61.52
74578;BME280;63173;49.086;33.418;2023-10-08T01:39:46;99372.09;;;9.84;61.74
74578;BME280;63173;49.086;33.418;2023-10-08T01:42:15;99359.97;;;10.15;60.51
74578;BME280;63173;49.086;33.418;2023-10-08T01:44:47;99359.88;;;10.08;60.63
74578;BME280;63173;49.086;33.418;2023-10-08T01:47:14;99351.69;;;10.15;61.60
74578;BME280;63173;49.086;33.418;2023-10-08T01:49:44;99361.06;;;10.36;60.82
74578;BME280;63173;49.086;33.418;2023-10-08T01:52:14;99356.84;;;10.16;60.84
74578;BME280;63173;49.086;33.418;2023-10-08T01:54:46;99356.66;;;10.02;60.89
74578;BME280;63173;49.086;33.418;2023-10-08T01:57:12;99363.78;;;10.07;60.51
74578;BME280;63173;49.086;33.418;2023-10-08T01:59:37;99353.84;;;10.25;60.96
74578;BME280;63173;49.086;33.418;2023-10-08T02:02:04;99350.34;;;10.28;60.60
74578;BME280;63173;49.086;33.418;2023-10-08T02:04:32;99356.31;;;9.81;62.84
74578;BME280;63173;49.086;33.418;2023-10-08T02:06:59;99350.13;;;9.88;62.65
74578;BME280;63173;49.086;33.418;2023-10-08T02:09:25;99357.94;;;10.12;62.87
74578;BME280;63173;49.086;33.418;2023-10-08T02:11:51;99355.13;;;10.08;61.25
74578;BME280;63173;49.086;33.418;2023-10-08T02:14:19;99345.38;;;10.14;60.97
74578;BME280;63173;49.086;33.418;2023-10-08T02:16:46;99347.25;;;10.33;60.77
74578;BME280;63173;49.086;33.418;2023-10-08T02:19:12;99353.03;;;9.98;62.33
74578;BME280;63173;49.086;33.418;2023-10-08T02:21:38;99352.56;;;9.93;62.94
74578;BME280;63173;49.086;33.418;2023-10-08T02:24:06;99343.13;;;9.94;62.64
74578;BME280;63173;49.086;33.418;2023-10-08T02:26:36;99342.78;;;9.73;62.95
74578;BME280;63173;49.086;33.418;2023-10-08T02:29:02;99344.28;;;9.66;62.72
74578;BME280;63173;49.086;33.418;2023-10-08T02:31:31;99323.41;;;9.92;63.88
74578;BME280;63173;49.086;33.418;2023-10-08T02:33:56;99337.44;;;9.34;64.07
74578;BME280;63173;49.086;33.418;2023-10-08T02:36:24;99341.47;;;9.40;63.24
74578;BME280;63173;49.086;33.418;2023-10-08T02:38:49;99327.44;;;9.45;64.31
74578;BME280;63173;49.086;33.418;2023-10-08T02:41:18;99323.41;;;9.20;64.32
74578;BME280;63173;49.086;33.418;2023-10-08T02:43:43;99310.91;;;9.72;63.47
74578;BME280;63173;49.086;33.418;2023-10-08T02:46:10;99319.56;;;9.47;63.50
74578;BME280;63173;49.086;33.418;2023-10-08T02:48:41;99311.84;;;9.56;65.07
74578;BME280;63173;49.086;33.418;2023-10-08T02:51:07;99306.25;;;9.76;65.13
74578;BME280;63173;49.086;33.418;2023-10-08T02:53:36;99299.22;;;9.82;63.23
74578;BME280;63173;49.086;33.418;2023-10-08T02:56:02;99299.84;;;9.68;63.68
74578;BME280;63173;49.086;33.418;2023-10-08T02:58:37;99312.16;;;9.51;64.91
74578;BME280;63173;49.086;33.418;2023-10-08T03:01:04;99320.19;;;9.15;65.46
74578;BME280;63173;49.086;33.418;2023-10-08T03:03:29;99309.94;;;9.87;63.99
74578;BME280;63173;49.086;33.418;2023-10-08T03:05:58;99327.25;;;9.61;64.36
74578;BME280;63173;49.086;33.418;2023-10-08T03:08:23;99324.38;;;9.31;65.25
74578;BME280;63173;49.086;33.418;2023-10-08T03:10:50;99324.38;;;8.86;67.06
74578;BME280;63173;49.086;33.418;2023-10-08T03:13:36;99340.41;;;9.03;66.19
74578;BME280;63173;49.086;33.418;2023-10-08T03:16:04;99339.16;;;9.42;65.54
74578;BME280;63173;49.086;33.418;2023-10-08T03:18:38;99333.31;;;9.25;65.76
74578;BME280;63173;49.086;33.418;2023-10-08T03:21:08;99321.88;;;9.94;64.10
74578;BME280;63173;49.086;33.418;2023-10-08T03:23:49;99316.06;;;9.05;65.80
74578;BME280;63173;49.086;33.418;2023-10-08T03:26:16;99309.56;;;9.36;65.04
74578;BME280;63173;49.086;33.418;2023-10-08T03:28:56;99327.28;;;9.38;65.57
74578;BME280;63173;49.086;33.418;2023-10-08T03:31:24;99327.81;;;9.25;66.10
74578;BME280;63173;49.086;33.418;2023-10-08T03:34:08;99325.28;;;9.35;66.27
74578;BME280;63173;49.086;33.418;2023-10-08T03:36:38;99327.59;;;9.33;66.01
74578;BME280;63173;49.086;33.418;2023-10-08T03:39:12;99308.84;;;9.20;66.96
74578;BME280;63173;49.086;33.418;2023-10-08T03:41:41;99317.28;;;9.76;65.08
74578;BME280;63173;49.086;33.418;2023-10-08T03:44:08;99308.88;;;8.78;67.58
74578;BME280;63173;49.086;33.418;2023-10-08T03:46:42;99312.19;;;9.10;67.13
74578;BME280;63173;49.086;33.418;2023-10-08T03:49:15;99306.03;;;8.94;66.51
74578;BME280;63173;49.086;33.418;2023-10-08T03:51:47;99321.34;;;9.36;65.90
74578;BME280;63173;49.086;33.418;2023-10-08T03:54:14;99306.88;;;8.75;69.13
74578;BME280;63173;49.086;33.418;2023-10-08T03:56:43;99307.44;;;9.29;67.42
74578;BME280;63173;49.086;33.418;2023-10-08T03:59:16;99303.13;;;9.28;67.45
74578;BME280;63173;49.086;33.418;2023-10-08T04:01:54;99310.22;;;9.78;65.14
74578;BME280;63173;49.086;33.418;2023-10-08T04:04:24;99304.38;;;10.09;64.76
74578;BME280;63173;49.086;33.418;2023-10-08T04:06:56;99309.16;;;8.92;66.86
74578;BME280;63173;49.086;33.418;2023-10-08T04:09:42;99319.00;;;9.16;66.05
74578;BME280;63173;49.086;33.418;2023-10-08T04:12:08;99316.59;;;9.33;65.54
74578;BME280;63173;49.086;33.418;2023-10-08T04:14:36;99305.22;;;8.93;67.56
74578;BME280;63173;49.086;33.418;2023-10-08T04:17:02;99311.97;;;9.63;65.32
74578;BME280;63173;49.086;33.418;2023-10-08T04:19:29;99305.81;;;9.74;65.92
74578;BME280;63173;49.086;33.418;2023-10-08T04:21:56;99326.31;;;8.86;66.64
74578;BME280;63173;49.086;33.418;2023-10-08T04:24:26;99314.78;;;8.99;67.42
74578;BME280;63173;49.086;33.418;2023-10-08T04:27:00;99321.56;;;8.83;68.19
74578;BME280;63173;49.086;33.418;2023-10-08T04:29:28;99310.28;;;9.33;66.33
74578;BME280;63173;49.086;33.418;2023-10-08T04:32:00;99320.34;;;9.03;65.63
74578;BME280;63173;49.086;33.418;2023-10-08T04:35:28;65943.25;;;-149.78;100.00
74578;BME280;63173;49.086;33.418;2023-10-08T04:38:52;65943.25;;;-149.78;100.00
74578;BME280;63173;49.086;33.418;2023-10-08T04:42:18;65943.25;;;-149.78;100.00
74578;BME280;63173;49.086;33.418;2023-10-08T04:45:49;65943.25;;;-149.78;100.00
74578;BME280;63173;49.086;33.418;2023-10-08T04:49:13;65943.25;;;-149.78;100.00
74578;BME280;63173;49.086;33.418;2023-10-08T04:52:56;65943.25;;;-149.78;100.00
74578;BME280;63173;49.086;33.418;2023-10-08T04:56:23;65943.25;;;-149.78;100.00
74578;BME280;63173;49.086;33.418;2023-10-08T04:59:47;65943.25;;;-149.78;100.00
74578;BME280;63173;49.086;33.418;2023-10-08T05:03:13;65943.25;;;-149.78;100.00
74578;BME280;63173;49.086;33.418;2023-10-08T05:06:41;65943.25;;;-149.78;100.00
74578;BME280;63173;49.086;33.418;2023-10-08T05:10:12;65943.25;;;-149.78;100.00
74578;BME280;63173;49.086;33.418;2023-10-08T05:13:48;65943.25;;;-149.78;100.00
74578;BME280;63173;49.086;33.418;2023-10-08T05:17:44;65943.25;;;-149.78;100.00
74578;BME280;63173;49.086;33.418;2023-10-08T05:21:14;65943.25;;;-149.78;100.00
74578;BME280;63173;49.086;33.418;2023-10-08T05:25:04;65943.25;;;-149.78;100.00
74578;BME280;63173;49.086;33.418;2023-10-08T05:28:50;65943.25;;;-149.78;100.00
74578;BME280;63173;49.086;33.418;2023-10-08T05:32:28;65943.25;;;-149.78;100.00
74578;BME280;63173;49.086;33.418;2023-10-08T05:36:03;65943.25;;;-149.78;100.00
74578;BME280;63173;49.086;33.418;2023-10-08T05:39:33;65943.25;;;-149.78;100.00
74578;BME280;63173;49.086;33.418;2023-10-08T05:43:03;65943.25;;;-149.78;100.00
74578;BME280;63173;49.086;33.418;2023-10-08T05:46:46;65943.25;;;-149.78;100.00
74578;BME280;63173;49.086;33.418;2023-10-08T05:50:33;65943.25;;;-149.78;100.00
74578;BME280;63173;49.086;33.418;2023-10-08T05:54:03;65943.25;;;-149.78;100.00
74578;BME280;63173;49.086;33.418;2023-10-08T05:57:47;65943.25;;;-149.78;100.00
74578;BME280;63173;49.086;33.418;2023-10-08T06:01:16;65943.25;;;-149.78;100.00
74578;BME280;63173;49.086;33.418;2023-10-08T06:08:55;65943.25;;;-149.78;100.00
74578;BME280;63173;49.086;33.418;2023-10-08T06:12:44;65943.25;;;-149.78;100.00
74578;BME280;63173;49.086;33.418;2023-10-08T06:16:13;65943.25;;;-149.78;100.00
74578;BME280;63173;49.086;33.418;2023-10-08T06:19:54;65943.25;;;-149.78;100.00
74578;BME280;63173;49.086;33.418;2023-10-08T06:23:18;65943.25;;;-149.78;100.00
74578;BME280;63173;49.086;33.418;2023-10-08T06:26:44;65943.25;;;-149.78;100.00
74578;BME280;63173;49.086;33.418;2023-10-08T06:30:12;65943.25;;;-149.78;100.00
74578;BME280;63173;49.086;33.418;2023-10-08T06:33:41;65943.25;;;-149.78;100.00
74578;BME280;63173;49.086;33.418;2023-10-08T06:36:08;99468.75;;;7.76;50.98
74578;BME280;63173;49.086;33.418;2023-10-08T06:38:36;99468.59;;;7.84;50.90
74578;BME280;63173;49.086;33.418;2023-10-08T06:41:04;99449.88;;;8.06;50.43
74578;BME280;63173;49.086;33.418;2023-10-08T06:43:40;99450.19;;;7.69;51.51
74578;BME280;63173;49.086;33.418;2023-10-08T06:46:12;99458.19;;;7.19;51.01
74578;BME280;63173;49.086;33.418;2023-10-08T06:48:38;99436.00;;;7.67;50.46
74578;BME280;63173;49.086;33.418;2023-10-08T06:51:10;99447.84;;;7.71;50.30
74578;BME280;63173;49.086;33.418;2023-10-08T06:53:39;99460.09;;;7.90;49.59
74578;BME280;63173;49.086;33.418;2023-10-08T06:56:05;99462.19;;;8.12;49.66
74578;BME280;63173;49.086;33.418;2023-10-08T06:58:31;99476.03;;;7.84;50.70
74578;BME280;63173;49.086;33.418;2023-10-08T07:01:01;99465.16;;;7.44;50.79
74578;BME280;63173;49.086;33.418;2023-10-08T07:03:31;99489.09;;;7.16;48.67
74578;BME280;63173;49.086;33.418;2023-10-08T07:05:57;99474.28;;;7.92;47.71
74578;BME280;63173;49.086;33.418;2023-10-08T07:08:26;99476.75;;;7.65;48.46
74578;BME280;63173;49.086;33.418;2023-10-08T07:10:53;99490.28;;;7.58;47.26
74578;BME280;63173;49.086;33.418;2023-10-08T07:13:23;99496.84;;;7.54;47.68
74578;BME280;63173;49.086;33.418;2023-10-08T07:15:51;99499.53;;;7.97;47.66
74578;BME280;63173;49.086;33.418;2023-10-08T07:18:17;99502.31;;;7.54;48.45
74578;BME280;63173;49.086;33.418;2023-10-08T07:20:52;99499.34;;;7.90;47.99
74578;BME280;63173;49.086;33.418;2023-10-08T07:23:24;99503.91;;;7.27;47.89
74578;BME280;63173;49.086;33.418;2023-10-08T07:25:57;99495.22;;;7.53;48.04
74578;BME280;63173;49.086;33.418;2023-10-08T07:28:41;99503.84;;;7.67;48.47
74578;BME280;63173;49.086;33.418;2023-10-08T07:31:17;99501.56;;;7.14;47.03
74578;BME280;63173;49.086;33.418;2023-10-08T07:33:47;99502.34;;;7.42;46.82
74578;BME280;63173;49.086;33.418;2023-10-08T07:36:13;99504.56;;;7.09;46.34
74578;BME280;63173;49.086;33.418;2023-10-08T07:38:46;99514.84;;;7.67;45.44
74578;BME280;63173;49.086;33.418;2023-10-08T07:41:13;99509.28;;;8.10;44.92
74578;BME280;63173;49.086;33.418;2023-10-08T07:43:43;99510.25;;;7.16;47.08
74578;BME280;63173;49.086;33.418;2023-10-08T07:46:10;99521.09;;;7.52;46.37
74578;BME280;63173;49.086;33.418;2023-10-08T07:48:36;99526.41;;;7.33;46.12
74578;BME280;63173;49.086;33.418;2023-10-08T07:51:07;99513.50;;;7.61;44.93
74578;BME280;63173;49.086;33.418;2023-10-08T07:53:32;99518.94;;;8.04;45.31
74578;BME280;63173;49.086;33.418;2023-10-08T07:56:06;99531.72;;;7.53;45.70
74578;BME280;63173;49.086;33.418;2023-10-08T07:58:35;99520.72;;;7.26;45.96
74578;BME280;63173;49.086;33.418;2023-10-08T08:01:08;99526.41;;;7.60;45.31
74578;BME280;63173;49.086;33.418;2023-10-08T08:03:35;99528.13;;;7.37;45.87
74578;BME280;63173;49.086;33.418;2023-10-08T08:06:11;99548.44;;;7.76;46.05
74578;BME280;63173;49.086;33.418;2023-10-08T08:08:38;99557.88;;;7.35;45.84
74578;BME280;63173;49.086;33.418;2023-10-08T08:11:07;99560.91;;;7.73;44.21
74578;BME280;63173;49.086;33.418;2023-10-08T08:13:38;99576.88;;;7.83;43.22
74578;BME280;63173;49.086;33.418;2023-10-08T08:16:07;99564.34;;;7.43;44.20
74578;BME280;63173;49.086;33.418;2023-10-08T08:18:48;99567.75;;;7.79;43.19
74578;BME280;63173;49.086;33.418;2023-10-08T08:21:24;99557.88;;;7.63;44.01
74578;BME280;63173;49.086;33.418;2023-10-08T08:23:51;99562.88;;;7.88;43.98
74578;BME280;63173;49.086;33.418;2023-10-08T08:26:20;99560.88;;;7.58;43.79
74578;BME280;63173;49.086;33.418;2023-10-08T08:29:01;99568.97;;;7.66;43.12
74578;BME280;63173;49.086;33.418;2023-10-08T08:31:30;99566.28;;;7.42;43.43
74578;BME280;63173;49.086;33.418;2023-10-08T08:33:57;99567.06;;;7.82;42.65
74578;BME280;63173;49.086;33.418;2023-10-08T08:36:29;99582.31;;;7.96;42.28
74578;BME280;63173;49.086;33.418;2023-10-08T08:38:55;99570.56;;;7.83;43.06
74578;BME280;63173;49.086;33.418;2023-10-08T08:41:21;99568.91;;;7.51;42.75
74578;BME280;63173;49.086;33.418;2023-10-08T08:46:15;99597.91;;;7.64;43.03
74578;BME280;63173;49.086;33.418;2023-10-08T08:48:44;99589.31;;;7.93;42.33
74578;BME280;63173;49.086;33.418;2023-10-08T08:51:10;99587.81;;;8.11;43.18
74578;BME280;63173;49.086;33.418;2023-10-08T08:53:37;99586.16;;;7.63;42.27
74578;BME280;63173;49.086;33.418;2023-10-08T08:56:02;99591.22;;;8.67;41.29
74578;BME280;63173;49.086;33.418;2023-10-08T08:58:33;99602.09;;;8.32;43.24
74578;BME280;63173;49.086;33.418;2023-10-08T09:00:59;99605.53;;;7.98;42.83
74578;BME280;63173;49.086;33.418;2023-10-08T09:03:25;99607.91;;;7.84;43.20
74578;BME280;63173;49.086;33.418;2023-10-08T09:05:58;99613.88;;;7.46;42.43
74578;BME280;63173;49.086;33.418;2023-10-08T09:08:27;99603.44;;;7.12;42.32
74578;BME280;63173;49.086;33.418;2023-10-08T09:10:57;99611.91;;;7.07;42.56
74578;BME280;63173;49.086;33.418;2023-10-08T09:13:26;99613.38;;;7.56;42.80
74578;BME280;63173;49.086;33.418;2023-10-08T09:16:06;99605.41;;;7.39;42.08
74578;BME280;63173;49.086;33.418;2023-10-08T09:18:32;99601.78;;;7.35;41.90
74578;BME280;63173;49.086;33.418;2023-10-08T09:21:09;99602.78;;;7.43;41.91
74578;BME280;63173;49.086;33.418;2023-10-08T09:23:39;99613.53;;;6.96;42.99
74578;BME280;63173;49.086;33.418;2023-10-08T09:26:11;99611.38;;;6.89;43.01
74578;BME280;63173;49.086;33.418;2023-10-08T09:28:39;99613.72;;;7.15;42.85
74578;BME280;63173;49.086;33.418;2023-10-08T09:31:10;99601.50;;;7.13;40.38
74578;BME280;63173;49.086;33.418;2023-10-08T09:33:37;99598.97;;;7.20;40.63
74578;BME280;63173;49.086;33.418;2023-10-08T09:36:02;99597.72;;;7.57;39.49
74578;BME280;63173;49.086;33.418;2023-10-08T09:38:31;99615.69;;;7.82;38.49
74578;BME280;63173;49.086;33.418;2023-10-08T09:40:59;99607.56;;;7.58;39.02
74578;BME280;63173;49.086;33.418;2023-10-08T09:43:31;99615.81;;;7.58;38.42
74578;BME280;63173;49.086;33.418;2023-10-08T09:46:15;99599.16;;;8.10;38.58
74578;BME280;63173;49.086;33.418;2023-10-08T09:48:41;99604.63;;;7.78;37.37
74578;BME280;63173;49.086;33.418;2023-10-08T09:51:10;99606.88;;;7.09;38.45
74578;BME280;63173;49.086;33.418;2023-10-08T09:56:15;99628.75;;;6.93;39.33
74578;BME280;63173;49.086;33.418;2023-10-08T09:58:42;99605.63;;;7.07;37.83
74578;BME280;63173;49.086;33.418;2023-10-08T10:01:08;99596.28;;;7.91;37.16
74578;BME280;63173;49.086;33.418;2023-10-08T10:03:35;99611.59;;;8.19;36.10
74578;BME280;63173;49.086;33.418;2023-10-08T10:06:01;99605.28;;;7.60;37.41
74578;BME280;63173;49.086;33.418;2023-10-08T10:08:27;99625.22;;;7.45;37.09
74578;BME280;63173;49.086;33.418;2023-10-08T10:10:59;99623.81;;;7.51;37.95
74578;BME280;63173;49.086;33.418;2023-10-08T10:13:34;99622.66;;;8.07;37.40
74578;BME280;63173;49.086;33.418;2023-10-08T10:15:59;99599.38;;;8.17;36.29
74578;BME280;63173;49.086;33.418;2023-10-08T10:23:41;99593.28;;;7.80;36.28
74578;BME280;63173;49.086;33.418;2023-10-08T10:26:32;99621.53;;;7.01;36.68
74578;BME280;63173;49.086;33.418;2023-10-08T10:34:21;99605.53;;;7.98;35.68
74578;BME280;63173;49.086;33.418;2023-10-08T10:36:50;99603.72;;;7.74;35.26
74578;BME280;63173;49.086;33.418;2023-10-08T10:39:20;99607.22;;;7.59;35.42
74578;BME280;63173;49.086;33.418;2023-10-08T10:42:02;99597.97;;;7.40;36.27
74578;BME280;63173;49.086;33.418;2023-10-08T10:44:29;99585.00;;;7.64;35.85
74578;BME280;63173;49.086;33.418;2023-10-08T10:46:55;99593.19;;;7.37;36.39
74578;BME280;63173;49.086;33.418;2023-10-08T10:49:39;99602.09;;;7.73;36.37
74578;BME280;63173;49.086;33.418;2023-10-08T10:52:14;99609.56;;;8.16;36.84
74578;BME280;63173;49.086;33.418;2023-10-08T10:54:45;99595.94;;;7.76;37.46
74578;BME280;63173;49.086;33.418;2023-10-08T10:57:25;99608.00;;;7.88;37.22
74578;BME280;63173;49.086;33.418;2023-10-08T11:00:02;99603.06;;;7.65;37.99
74578;BME280;63173;49.086;33.418;2023-10-08T11:02:43;99604.03;;;8.01;38.20
74578;BME280;63173;49.086;33.418;2023-10-08T11:05:15;99625.03;;;7.65;38.11
74578;BME280;63173;49.086;33.418;2023-10-08T11:07:46;99615.69;;;8.72;36.44
74578;BME280;63173;49.086;33.418;2023-10-08T11:10:13;99619.66;;;8.12;37.73
74578;BME280;63173;49.086;33.418;2023-10-08T11:12:42;99611.47;;;9.09;36.44
74578;BME280;63173;49.086;33.418;2023-10-08T11:15:15;99625.94;;;8.28;38.40
74578;BME280;63173;49.086;33.418;2023-10-08T11:17:44;99621.25;;;8.29;38.80
74578;BME280;63173;49.086;33.418;2023-10-08T11:20:27;99633.22;;;8.21;37.92
74578;BME280;63173;49.086;33.418;2023-10-08T11:22:53;99616.28;;;8.19;38.21
74578;BME280;63173;49.086;33.418;2023-10-08T11:25:27;99644.97;;;7.90;37.72
74578;BME280;63173;49.086;33.418;2023-10-08T11:27:56;99611.66;;;7.92;38.24
74578;BME280;63173;49.086;33.418;2023-10-08T11:30:34;99626.41;;;7.87;38.86
74578;BME280;63173;49.086;33.418;2023-10-08T11:33:00;99614.22;;;7.84;38.45
74578;BME280;63173;49.086;33.418;2023-10-08T11:35:26;99627.72;;;7.50;38.72
74578;BME280;63173;49.086;33.418;2023-10-08T11:37:58;99626.94;;;8.20;38.66
74578;BME280;63173;49.086;33.418;2023-10-08T11:40:26;99627.13;;;7.56;38.83
74578;BME280;63173;49.086;33.418;2023-10-08T11:42:56;99636.22;;;7.72;39.28
74578;BME280;63173;49.086;33.418;2023-10-08T11:45:24;99626.19;;;7.64;39.66
74578;BME280;63173;49.086;33.418;2023-10-08T11:47:51;99629.09;;;7.56;39.08
74578;BME280;63173;49.086;33.418;2023-10-08T11:50:37;99633.72;;;7.95;37.74
74578;BME280;63173;49.086;33.418;2023-10-08T11:53:03;99622.41;;;7.69;37.21
74578;BME280;63173;49.086;33.418;2023-10-08T11:55:33;99625.28;;;7.88;36.97
74578;BME280;63173;49.086;33.418;2023-10-08T11:58:05;99635.44;;;8.15;35.96
74578;BME280;63173;49.086;33.418;2023-10-08T12:00:42;99621.97;;;8.26;34.79
74578;BME280;63173;49.086;33.418;2023-10-08T12:03:15;99629.53;;;9.60;32.95
74578;BME280;63173;49.086;33.418;2023-10-08T12:05:49;99630.34;;;8.60;33.63
74578;BME280;63173;49.086;33.418;2023-10-08T12:08:18;99625.69;;;8.18;34.22
74578;BME280;63173;49.086;33.418;2023-10-08T12:10:46;99626.94;;;8.20;33.61
74578;BME280;63173;49.086;33.418;2023-10-08T12:13:13;99640.91;;;7.32;34.60
74578;BME280;63173;49.086;33.418;2023-10-08T12:15:41;99640.38;;;8.10;33.47
74578;BME280;63173;49.086;33.418;2023-10-08T12:18:10;99628.56;;;7.66;34.52
74578;BME280;63173;49.086;33.418;2023-10-08T12:20:51;99628.16;;;8.07;34.35
74578;BME280;63173;49.086;33.418;2023-10-08T12:23:16;99629.94;;;8.00;34.26
74578;BME280;63173;49.086;33.418;2023-10-08T12:25:52;99611.69;;;8.07;34.99
74578;BME280;63173;49.086;33.418;2023-10-08T12:28:18;99612.84;;;8.53;34.72
74578;BME280;63173;49.086;33.418;2023-10-08T12:30:45;99616.63;;;8.02;35.20
74578;BME280;63173;49.086;33.418;2023-10-08T12:33:10;99607.72;;;7.77;35.54
74578;BME280;63173;49.086;33.418;2023-10-08T12:35:41;99606.66;;;7.54;35.63
74578;BME280;63173;49.086;33.418;2023-10-08T12:38:06;99605.97;;;7.84;34.72
74578;BME280;63173;49.086;33.418;2023-10-08T12:40:34;99591.72;;;7.67;34.65
74578;BME280;63173;49.086;33.418;2023-10-08T12:43:08;99585.88;;;7.41;34.04
74578;BME280;63173;49.086;33.418;2023-10-08T12:45:33;99595.78;;;8.01;33.37
74578;BME280;63173;49.086;33.418;2023-10-08T12:48:02;99588.44;;;7.61;34.35
74578;BME280;63173;49.086;33.418;2023-10-08T12:50:28;99606.16;;;7.92;34.06
74578;BME280;63173;49.086;33.418;2023-10-08T12:53:08;99597.38;;;7.86;34.06
74578;BME280;63173;49.086;33.418;2023-10-08T12:55:37;99579.94;;;8.41;34.10
74578;BME280;63173;49.086;33.418;2023-10-08T12:58:05;99573.88;;;9.17;32.49
74578;BME280;63173;49.086;33.418;2023-10-08T13:00:36;99581.22;;;10.08;32.35
74578;BME280;63173;49.086;33.418;2023-10-08T13:03:03;99589.22;;;8.83;33.70
74578;BME280;63173;49.086;33.418;2023-10-08T13:05:31;99588.31;;;7.85;35.02
74578;BME280;63173;49.086;33.418;2023-10-08T13:07:58;99595.78;;;8.01;34.28
74578;BME280;63173;49.086;33.418;2023-10-08T13:10:29;99588.09;;;8.22;33.94
74578;BME280;63173;49.086;33.418;2023-10-08T13:12:56;99605.06;;;7.80;33.81
74578;BME280;63173;49.086;33.418;2023-10-08T13:15:22;99589.81;;;8.42;33.22
74578;BME280;63173;49.086;33.418;2023-10-08T13:17:51;99594.75;;;8.36;32.62
74578;BME280;63173;49.086;33.418;2023-10-08T13:20:17;99582.34;;;8.58;32.43
74578;BME280;63173;49.086;33.418;2023-10-08T13:22:43;99580.44;;;9.12;31.42
74578;BME280;63173;49.086;33.418;2023-10-08T13:25:10;99585.31;;;9.95;29.94
74578;BME280;63173;49.086;33.418;2023-10-08T13:27:37;99582.28;;;9.81;29.33
74578;BME280;63173;49.086;33.418;2023-10-08T13:30:07;99591.31;;;10.01;29.09
74578;BME280;63173;49.086;33.418;2023-10-08T13:32:35;99577.69;;;11.35;27.34
74578;BME280;63173;49.086;33.418;2023-10-08T13:35:04;99608.22;;;10.18;26.97
74578;BME280;63173;49.086;33.418;2023-10-08T13:37:33;99609.63;;;10.31;26.93
74578;BME280;63173;49.086;33.418;2023-10-08T13:39:59;99585.25;;;9.73;28.50
74578;BME280;63173;49.086;33.418;2023-10-08T13:42:24;99591.44;;;9.66;28.13
74578;BME280;63173;49.086;33.418;2023-10-08T13:44:56;99595.34;;;10.26;27.73
74578;BME280;63173;49.086;33.418;2023-10-08T13:47:25;99593.66;;;9.22;30.03
74578;BME280;63173;49.086;33.418;2023-10-08T13:49:54;99594.66;;;10.55;28.19
74578;BME280;63173;49.086;33.418;2023-10-08T13:52:20;99602.13;;;10.54;27.61
74578;BME280;63173;49.086;33.418;2023-10-08T13:54:46;99599.25;;;10.70;28.06
74578;BME280;63173;49.086;33.418;2023-10-08T13:57:20;99611.81;;;9.27;29.87
74578;BME280;63173;49.086;33.418;2023-10-08T13:59:47;99606.13;;;9.01;30.01
74578;BME280;63173;49.086;33.418;2023-10-08T14:02:13;99608.63;;;9.25;29.04
74578;BME280;63173;49.086;33.418;2023-10-08T14:04:45;99596.38;;;10.40;28.66